sensor_id;sensor_type;location;lat;lon;timestamp;pressure;altitude;pressure_sealevel;temperature;humidity
71966;BME280;59836;52.132;5.442;2023-04-24T00:00:31;99860.78;;;9.89;95.27
71966;BME280;59836;52.132;5.442;2023-04-24T00:03:05;99867.81;;;9.90;95.38
71966;BME280;59836;52.132;5.442;2023-04-24T00:05:33;99865.63;;;9.92;94.89
71966;BME280;59836;52.132;5.442;2023-04-24T00:07:59;99866.78;;;9.86;94.64
71966;BME280;59836;52.132;5.442;2023-04-24T00:10:32;99866.25;;;9.84;95.22
71966;BME280;59836;52.132;5.442;2023-04-24T00:13:03;99868.16;;;9.83;95.17
71966;BME280;59836;52.132;5.442;2023-04-24T00:15:31;99876.00;;;9.85;95.51
71966;BME280;59836;52.132;5.442;2023-04-24T00:17:57;99868.41;;;9.87;94.96
71966;BME280;59836;52.132;5.442;2023-04-24T00:20:30;99879.22;;;9.87;95.00
71966;BME280;59836;52.132;5.442;2023-04-24T00:22:58;99883.81;;;9.86;95.14
71966;BME280;59836;52.132;5.442;2023-04-24T00:25:32;99884.41;;;9.83;95.28
71966;BME280;59836;52.132;5.442;2023-04-24T00:28:03;99888.19;;;9.82;95.36
71966;BME280;59836;52.132;5.442;2023-04-24T00:30:47;99888.00;;;9.79;95.18
71966;BME280;59836;52.132;5.442;2023-04-24T00:33:13;99890.16;;;9.77;95.47
71966;BME280;59836;52.132;5.442;2023-04-24T00:35:50;99888.56;;;9.75;95.78
71966;BME280;59836;52.132;5.442;2023-04-24T00:38:17;99892.34;;;9.74;95.56
71966;BME280;59836;52.132;5.442;2023-04-24T00:40:46;99881.53;;;9.74;95.37
71966;BME280;59836;52.132;5.442;2023-04-24T00:43:14;99892.94;;;9.71;95.16
71966;BME280;59836;52.132;5.442;2023-04-24T00:45:46;99889.41;;;9.71;95.39
71966;BME280;59836;52.132;5.442;2023-04-24T00:48:47;99890.44;;;9.75;94.69
71966;BME280;59836;52.132;5.442;2023-04-24T00:51:13;99895.84;;;9.75;94.95
71966;BME280;59836;52.132;5.442;2023-04-24T00:53:40;99891.78;;;9.78;95.55
71966;BME280;59836;52.132;5.442;2023-04-24T00:56:07;99902.63;;;9.78;95.08
71966;BME280;59836;52.132;5.442;2023-04-24T00:58:42;99907.78;;;9.74;95.75
71966;BME280;59836;52.132;5.442;2023-04-24T01:04:16;99905.38;;;9.72;95.68
71966;BME280;59836;52.132;5.442;2023-04-24T01:06:45;99902.16;;;9.70;95.25
71966;BME280;59836;52.132;5.442;2023-04-24T01:09:12;99915.16;;;9.68;95.58
71966;BME280;59836;52.132;5.442;2023-04-24T01:11:41;99908.94;;;9.68;95.87
71966;BME280;59836;52.132;5.442;2023-04-24T01:14:09;99903.81;;;9.66;95.71
71966;BME280;59836;52.132;5.442;2023-04-24T01:16:37;99915.16;;;9.68;96.13
71966;BME280;59836;52.132;5.442;2023-04-24T01:19:06;99920.84;;;9.67;95.44
71966;BME280;59836;52.132;5.442;2023-04-24T01:21:36;99920.59;;;9.68;96.08
71966;BME280;59836;52.132;5.442;2023-04-24T01:24:04;99925.47;;;9.66;95.41
71966;BME280;59836;52.132;5.442;2023-04-24T01:26:31;99920.28;;;9.70;96.22
71966;BME280;59836;52.132;5.442;2023-04-24T01:28:57;99925.44;;;9.71;95.91
71966;BME280;59836;52.132;5.442;2023-04-24T01:31:40;99929.22;;;9.70;95.94
71966;BME280;59836;52.132;5.442;2023-04-24T01:34:07;99924.59;;;9.71;96.16
71966;BME280;59836;52.132;5.442;2023-04-24T01:36:38;99923.81;;;9.70;95.91
71966;BME280;59836;52.132;5.442;2023-04-24T01:39:06;99929.22;;;9.70;96.53
71966;BME280;59836;52.132;5.442;2023-04-24T01:41:33;99924.03;;;9.74;95.97
71966;BME280;59836;52.132;5.442;2023-04-24T01:44:02;99927.03;;;9.72;96.04
71966;BME280;59836;52.132;5.442;2023-04-24T01:50:13;99932.44;;;9.72;96.05
71966;BME280;59836;52.132;5.442;2023-04-24T01:52:39;99931.88;;;9.75;96.28
71966;BME280;59836;52.132;5.442;2023-04-24T01:55:06;99932.69;;;9.76;96.17
71966;BME280;59836;52.132;5.442;2023-04-24T01:57:41;99937.53;;;9.79;96.27
71966;BME280;59836;52.132;5.442;2023-04-24T02:00:07;99930.50;;;9.78;96.42
71966;BME280;59836;52.132;5.442;2023-04-24T02:02:49;99936.72;;;9.79;96.26
71966;BME280;59836;52.132;5.442;2023-04-24T02:05:18;99935.63;;;9.80;96.41
71966;BME280;59836;52.132;5.442;2023-04-24T02:07:44;99940.53;;;9.78;96.44
71966;BME280;59836;52.132;5.442;2023-04-24T02:10:17;99934.53;;;9.81;96.23
71966;BME280;59836;52.132;5.442;2023-04-24T02:12:44;99925.31;;;9.82;96.31
71966;BME280;59836;52.132;5.442;2023-04-24T02:15:25;99937.78;;;9.83;96.52
71966;BME280;59836;52.132;5.442;2023-04-24T02:18:04;99938.56;;;9.83;96.43
71966;BME280;59836;52.132;5.442;2023-04-24T02:20:34;99936.16;;;9.82;96.48
71966;BME280;59836;52.132;5.442;2023-04-24T02:23:11;99938.88;;;9.82;96.75
71966;BME280;59836;52.132;5.442;2023-04-24T02:25:50;99934.03;;;9.79;95.96
71966;BME280;59836;52.132;5.442;2023-04-24T02:28:16;99931.31;;;9.79;96.61
71966;BME280;59836;52.132;5.442;2023-04-24T02:30:46;99932.94;;;9.80;96.20
71966;BME280;59836;52.132;5.442;2023-04-24T02:33:20;99934.81;;;9.79;96.12
71966;BME280;59836;52.132;5.442;2023-04-24T02:35:47;99931.31;;;9.79;95.92
71966;BME280;59836;52.132;5.442;2023-04-24T02:38:14;99933.50;;;9.77;96.12
71966;BME280;59836;52.132;5.442;2023-04-24T02:40:41;99934.34;;;9.72;95.95
71966;BME280;59836;52.132;5.442;2023-04-24T02:43:16;99935.97;;;9.73;96.23
71966;BME280;59836;52.132;5.442;2023-04-24T02:45:46;99934.06;;;9.73;95.98
71966;BME280;59836;52.132;5.442;2023-04-24T02:48:16;99940.28;;;9.74;96.21
71966;BME280;59836;52.132;5.442;2023-04-24T02:50:45;99937.31;;;9.75;96.04
71966;BME280;59836;52.132;5.442;2023-04-24T02:53:24;99938.09;;;9.76;96.65
71966;BME280;59836;52.132;5.442;2023-04-24T02:55:58;99931.88;;;9.75;96.30
71966;BME280;59836;52.132;5.442;2023-04-24T02:58:30;99936.47;;;9.75;96.44
71966;BME280;59836;52.132;5.442;2023-04-24T03:00:57;99937.31;;;9.75;96.35
71966;BME280;59836;52.132;5.442;2023-04-24T03:03:23;99940.28;;;9.74;96.28
71966;BME280;59836;52.132;5.442;2023-04-24T03:05:50;99928.94;;;9.72;96.68
71966;BME280;59836;52.132;5.442;2023-04-24T03:08:17;99924.59;;;9.71;96.62
71966;BME280;59836;52.132;5.442;2023-04-24T03:10:45;99934.34;;;9.72;96.64
71966;BME280;59836;52.132;5.442;2023-04-24T03:13:18;99934.66;;;9.70;96.97
71966;BME280;59836;52.132;5.442;2023-04-24T03:15:45;99936.25;;;9.71;96.51
71966;BME280;59836;52.132;5.442;2023-04-24T03:18:13;99938.41;;;9.74;96.62
71966;BME280;59836;52.132;5.442;2023-04-24T03:20:40;99934.88;;;9.74;96.79
71966;BME280;59836;52.132;5.442;2023-04-24T03:23:16;99938.41;;;9.74;96.92
71966;BME280;59836;52.132;5.442;2023-04-24T03:26:17;99933.78;;;9.75;96.47
71966;BME280;59836;52.132;5.442;2023-04-24T03:29:05;99936.47;;;9.75;96.88
71966;BME280;59836;52.132;5.442;2023-04-24T03:31:32;99935.38;;;9.76;96.72
71966;BME280;59836;52.132;5.442;2023-04-24T03:33:58;99945.44;;;9.75;96.77
71966;BME280;59836;52.132;5.442;2023-04-24T03:36:25;99936.25;;;9.71;96.90
71966;BME280;59836;52.132;5.442;2023-04-24T03:38:52;99942.47;;;9.72;96.84
71966;BME280;59836;52.132;5.442;2023-04-24T03:41:18;99940.28;;;9.74;96.53
71966;BME280;59836;52.132;5.442;2023-04-24T03:43:52;99945.69;;;9.74;97.08
71966;BME280;59836;52.132;5.442;2023-04-24T03:46:18;99935.69;;;9.74;96.84
71966;BME280;59836;52.132;5.442;2023-04-24T03:49:17;99937.56;;;9.74;96.77
71966;BME280;59836;52.132;5.442;2023-04-24T03:51:44;99940.56;;;9.72;96.96
71966;BME280;59836;52.132;5.442;2023-04-24T03:54:15;99932.97;;;9.74;97.17
71966;BME280;59836;52.132;5.442;2023-04-24T04:00:08;99940.06;;;9.70;96.43
71966;BME280;59836;52.132;5.442;2023-04-24T04:02:35;99947.66;;;9.68;96.90
71966;BME280;59836;52.132;5.442;2023-04-24T04:05:23;99944.94;;;9.68;97.03
71966;BME280;59836;52.132;5.442;2023-04-24T04:08:03;99951.97;;;9.69;97.12
71966;BME280;59836;52.132;5.442;2023-04-24T04:10:30;99950.06;;;9.70;97.16
71966;BME280;59836;52.132;5.442;2023-04-24T04:13:02;99956.31;;;9.70;97.25
71966;BME280;59836;52.132;5.442;2023-04-24T04:15:29;99958.50;;;9.68;96.81
71966;BME280;59836;52.132;5.442;2023-04-24T04:17:55;99952.81;;;9.65;96.69
71966;BME280;59836;52.132;5.442;2023-04-24T04:20:22;99953.13;;;9.63;96.67
71966;BME280;59836;52.132;5.442;2023-04-24T04:22:48;99955.81;;;9.63;96.77
71966;BME280;59836;52.132;5.442;2023-04-24T04:25:15;99965.84;;;9.63;96.44
71966;BME280;59836;52.132;5.442;2023-04-24T04:27:42;99965.03;;;9.62;96.65
71966;BME280;59836;52.132;5.442;2023-04-24T04:30:08;99964.53;;;9.60;96.48
71966;BME280;59836;52.132;5.442;2023-04-24T04:32:36;99969.41;;;9.58;97.25
71966;BME280;59836;52.132;5.442;2023-04-24T04:35:03;99973.22;;;9.57;97.07
71966;BME280;59836;52.132;5.442;2023-04-24T04:37:33;99978.09;;;9.55;97.02
71966;BME280;59836;52.132;5.442;2023-04-24T04:40:00;99982.41;;;9.56;96.84
71966;BME280;59836;52.132;5.442;2023-04-24T04:42:27;99979.72;;;9.56;97.52
71966;BME280;59836;52.132;5.442;2023-04-24T04:44:54;99979.72;;;9.56;97.19
71966;BME280;59836;52.132;5.442;2023-04-24T04:47:24;99993.47;;;9.59;97.54
71966;BME280;59836;52.132;5.442;2023-04-24T04:49:50;99991.59;;;9.60;97.31
71966;BME280;59836;52.132;5.442;2023-04-24T04:52:18;99993.72;;;9.63;97.83
71966;BME280;59836;52.132;5.442;2023-04-24T04:54:45;99995.09;;;9.60;97.64
71966;BME280;59836;52.132;5.442;2023-04-24T04:57:12;99994.81;;;9.62;97.70
71966;BME280;59836;52.132;5.442;2023-04-24T04:59:39;100003.47;;;9.64;97.84
71966;BME280;59836;52.132;5.442;2023-04-24T05:02:10;100000.75;;;9.64;97.97
71966;BME280;59836;52.132;5.442;2023-04-24T05:04:36;100003.47;;;9.64;97.83
71966;BME280;59836;52.132;5.442;2023-04-24T05:07:06;100006.19;;;9.64;97.33
71966;BME280;59836;52.132;5.442;2023-04-24T05:09:46;100013.22;;;9.65;97.35
71966;BME280;59836;52.132;5.442;2023-04-24T05:12:12;100013.22;;;9.65;97.62
71966;BME280;59836;52.132;5.442;2023-04-24T05:14:39;100016.19;;;9.64;97.53
71966;BME280;59836;52.132;5.442;2023-04-24T05:17:06;100015.91;;;9.65;97.11
71966;BME280;59836;52.132;5.442;2023-04-24T05:19:33;100023.22;;;9.65;97.39
71966;BME280;59836;52.132;5.442;2023-04-24T05:22:02;100025.66;;;9.66;97.16
71966;BME280;59836;52.132;5.442;2023-04-24T05:24:43;100027.28;;;9.67;96.93
71966;BME280;59836;52.132;5.442;2023-04-24T05:27:10;100033.47;;;9.68;97.16
71966;BME280;59836;52.132;5.442;2023-04-24T05:29:39;100041.34;;;9.69;97.39
71966;BME280;59836;52.132;5.442;2023-04-24T05:32:06;100048.88;;;9.72;97.70
71966;BME280;59836;52.132;5.442;2023-04-24T05:34:33;100047.28;;;9.71;97.63
71966;BME280;59836;52.132;5.442;2023-04-24T05:36:59;100057.00;;;9.72;97.51
71966;BME280;59836;52.132;5.442;2023-04-24T05:39:26;100052.69;;;9.71;97.53
71966;BME280;59836;52.132;5.442;2023-04-24T05:41:52;100067.84;;;9.72;97.64
71966;BME280;59836;52.132;5.442;2023-04-24T05:44:21;100065.13;;;9.72;97.54
71966;BME280;59836;52.132;5.442;2023-04-24T05:46:48;100075.44;;;9.70;97.27
71966;BME280;59836;52.132;5.442;2023-04-24T05:49:14;100081.94;;;9.69;97.18
71966;BME280;59836;52.132;5.442;2023-04-24T05:51:41;100076.00;;;9.67;97.16
71966;BME280;59836;52.132;5.442;2023-04-24T05:54:08;100084.13;;;9.67;97.51
71966;BME280;59836;52.132;5.442;2023-04-24T05:56:34;100086.00;;;9.67;97.56
71966;BME280;59836;52.132;5.442;2023-04-24T05:59:01;100086.31;;;9.65;97.06
71966;BME280;59836;52.132;5.442;2023-04-24T06:01:28;100095.22;;;9.66;97.09
71966;BME280;59836;52.132;5.442;2023-04-24T06:03:54;100096.31;;;9.65;97.78
71966;BME280;59836;52.132;5.442;2023-04-24T06:06:23;100105.25;;;9.65;97.42
71966;BME280;59836;52.132;5.442;2023-04-24T06:08:53;100108.22;;;9.64;97.17
71966;BME280;59836;52.132;5.442;2023-04-24T06:11:20;100113.94;;;9.62;97.22
71966;BME280;59836;52.132;5.442;2023-04-24T06:13:52;100114.50;;;9.59;96.77
71966;BME280;59836;52.132;5.442;2023-04-24T06:16:30;100123.19;;;9.56;97.45
71966;BME280;59836;52.132;5.442;2023-04-24T06:19:00;100128.59;;;9.56;96.87
71966;BME280;59836;52.132;5.442;2023-04-24T06:21:35;100126.97;;;9.55;96.45
71966;BME280;59836;52.132;5.442;2023-04-24T06:24:10;100128.09;;;9.49;96.98
71966;BME280;59836;52.132;5.442;2023-04-24T06:26:47;100134.06;;;9.45;96.33
71966;BME280;59836;52.132;5.442;2023-04-24T06:31:58;100145.47;;;9.42;96.71
71966;BME280;59836;52.132;5.442;2023-04-24T06:38:59;100170.66;;;9.38;96.41
71966;BME280;59836;52.132;5.442;2023-04-24T06:41:29;100168.22;;;9.36;97.05
71966;BME280;59836;52.132;5.442;2023-04-24T06:43:56;100182.56;;;9.37;97.04
71966;BME280;59836;52.132;5.442;2023-04-24T06:46:23;100180.13;;;9.35;96.85
71966;BME280;59836;52.132;5.442;2023-04-24T06:48:53;100192.03;;;9.34;96.74
71966;BME280;59836;52.132;5.442;2023-04-24T06:51:24;100199.06;;;9.35;96.72
71966;BME280;59836;52.132;5.442;2023-04-24T06:53:51;100201.53;;;9.37;97.08
71966;BME280;59836;52.132;5.442;2023-04-24T06:56:18;100216.94;;;9.36;96.64
71966;BME280;59836;52.132;5.442;2023-04-24T06:58:48;100209.91;;;9.35;96.86
71966;BME280;59836;52.132;5.442;2023-04-24T07:01:15;100217.75;;;9.37;96.96
71966;BME280;59836;52.132;5.442;2023-04-24T07:03:43;100223.44;;;9.35;96.80
71966;BME280;59836;52.132;5.442;2023-04-24T07:06:10;100231.81;;;9.39;96.68
71966;BME280;59836;52.132;5.442;2023-04-24T07:08:39;100238.59;;;9.36;96.77
71966;BME280;59836;52.132;5.442;2023-04-24T07:11:08;100254.56;;;9.33;96.59
71966;BME280;59836;52.132;5.442;2023-04-24T07:13:42;100245.09;;;9.30;96.52
71966;BME280;59836;52.132;5.442;2023-04-24T07:16:09;100264.56;;;9.32;96.19
71966;BME280;59836;52.132;5.442;2023-04-24T07:18:36;100259.47;;;9.25;96.52
71966;BME280;59836;52.132;5.442;2023-04-24T07:21:04;100269.47;;;9.25;96.51
71966;BME280;59836;52.132;5.442;2023-04-24T07:23:31;100282.47;;;9.23;95.88
71966;BME280;59836;52.132;5.442;2023-04-24T07:26:01;100283.84;;;9.20;95.66
71966;BME280;59836;52.132;5.442;2023-04-24T07:28:30;100288.94;;;9.22;96.19
71966;BME280;59836;52.132;5.442;2023-04-24T07:30:58;100300.88;;;9.21;95.94
71966;BME280;59836;52.132;5.442;2023-04-24T07:33:26;100306.28;;;9.21;96.21
71966;BME280;59836;52.132;5.442;2023-04-24T07:35:53;100311.16;;;9.19;95.74
71966;BME280;59836;52.132;5.442;2023-04-24T07:38:29;100326.84;;;9.16;95.76
71966;BME280;59836;52.132;5.442;2023-04-24T07:40:59;100326.84;;;9.16;96.04
71966;BME280;59836;52.132;5.442;2023-04-24T07:43:28;100329.00;;;9.14;96.03
71966;BME280;59836;52.132;5.442;2023-04-24T07:45:55;100347.69;;;9.16;95.84
71966;BME280;59836;52.132;5.442;2023-04-24T07:48:26;100342.28;;;9.16;95.98
71966;BME280;59836;52.132;5.442;2023-04-24T07:50:57;100353.66;;;9.13;95.61
71966;BME280;59836;52.132;5.442;2023-04-24T07:53:24;100351.19;;;9.11;95.77
71966;BME280;59836;52.132;5.442;2023-04-24T07:55:51;100357.44;;;9.12;95.61
71966;BME280;59836;52.132;5.442;2023-04-24T07:58:18;100359.31;;;9.16;96.17
71966;BME280;59836;52.132;5.442;2023-04-24T08:00:47;100368.50;;;9.15;96.17
71966;BME280;59836;52.132;5.442;2023-04-24T08:03:14;100370.66;;;9.13;95.84
71966;BME280;59836;52.132;5.442;2023-04-24T08:05:45;100368.50;;;9.15;95.43
71966;BME280;59836;52.132;5.442;2023-04-24T08:08:21;100378.00;;;9.18;96.25
71966;BME280;59836;52.132;5.442;2023-04-24T08:10:49;100384.19;;;9.19;96.57
71966;BME280;59836;52.132;5.442;2023-04-24T08:13:15;100391.22;;;9.20;96.65
71966;BME280;59836;52.132;5.442;2023-04-24T08:22:51;100422.91;;;9.04;95.88
71966;BME280;59836;52.132;5.442;2023-04-24T08:25:17;100426.41;;;9.04;96.19
71966;BME280;59836;52.132;5.442;2023-04-24T08:27:48;100440.47;;;9.01;96.34
71966;BME280;59836;52.132;5.442;2023-04-24T08:30:15;100452.63;;;8.98;96.07
71966;BME280;59836;52.132;5.442;2023-04-24T08:32:43;100446.97;;;8.95;95.71
71966;BME280;59836;52.132;5.442;2023-04-24T08:35:22;100454.81;;;8.96;95.10
71966;BME280;59836;52.132;5.442;2023-04-24T08:41:00;100465.91;;;8.95;95.19
71966;BME280;59836;52.132;5.442;2023-04-24T08:43:27;100472.38;;;8.94;95.48
71966;BME280;59836;52.132;5.442;2023-04-24T08:45:57;100465.91;;;8.95;95.55
71966;BME280;59836;52.132;5.442;2023-04-24T08:48:26;100468.59;;;8.95;95.81
71966;BME280;59836;52.132;5.442;2023-04-24T08:50:58;100475.63;;;9.01;95.88
71966;BME280;59836;52.132;5.442;2023-04-24T08:53:30;100488.06;;;9.02;95.84
71966;BME280;59836;52.132;5.442;2023-04-24T08:59:45;100503.22;;;9.08;95.87
71966;BME280;59836;52.132;5.442;2023-04-24T09:02:13;100504.84;;;9.09;95.55
71966;BME280;59836;52.132;5.442;2023-04-24T09:04:43;100508.63;;;9.08;94.79
71966;BME280;59836;52.132;5.442;2023-04-24T09:07:16;100514.06;;;9.08;94.45
71966;BME280;59836;52.132;5.442;2023-04-24T09:09:44;100517.84;;;9.07;93.57
71966;BME280;59836;52.132;5.442;2023-04-24T09:12:11;100525.69;;;9.04;93.45
71966;BME280;59836;52.132;5.442;2023-04-24T09:14:38;100524.59;;;9.05;93.48
71966;BME280;59836;52.132;5.442;2023-04-24T09:17:11;100524.84;;;9.03;93.37
71966;BME280;59836;52.132;5.442;2023-04-24T09:19:41;100523.78;;;9.04;92.78
71966;BME280;59836;52.132;5.442;2023-04-24T09:22:12;100533.28;;;9.07;92.64
71966;BME280;59836;52.132;5.442;2023-04-24T09:24:47;100537.31;;;9.09;92.46
71966;BME280;59836;52.132;5.442;2023-04-24T09:27:14;100537.59;;;9.13;92.42
71966;BME280;59836;52.132;5.442;2023-04-24T09:29:56;100542.50;;;9.16;91.70
71966;BME280;59836;52.132;5.442;2023-04-24T09:32:30;100549.00;;;9.20;92.40
71966;BME280;59836;52.132;5.442;2023-04-24T09:35:15;100552.50;;;9.26;92.54
71966;BME280;59836;52.132;5.442;2023-04-24T09:37:56;100539.28;;;9.35;91.43
71966;BME280;59836;52.132;5.442;2023-04-24T09:40:39;100562.81;;;9.39;92.63
71966;BME280;59836;52.132;5.442;2023-04-24T09:43:14;100562.81;;;9.44;90.52
71966;BME280;59836;52.132;5.442;2023-04-24T09:45:47;100564.47;;;9.51;90.57
71966;BME280;59836;52.132;5.442;2023-04-24T09:48:32;100570.41;;;9.58;90.88
71966;BME280;59836;52.132;5.442;2023-04-24T09:51:07;100574.75;;;9.64;90.19
71966;BME280;59836;52.132;5.442;2023-04-24T09:53:37;100593.16;;;9.62;89.50
71966;BME280;59836;52.132;5.442;2023-04-24T09:56:09;100591.53;;;9.61;88.95
71966;BME280;59836;52.132;5.442;2023-04-24T09:58:42;100592.63;;;9.55;88.85
71966;BME280;59836;52.132;5.442;2023-04-24T10:01:09;100601.03;;;9.53;88.56
71966;BME280;59836;52.132;5.442;2023-04-24T10:03:41;100603.19;;;9.46;88.58
71966;BME280;59836;52.132;5.442;2023-04-24T10:08:47;100612.09;;;9.47;88.67
71966;BME280;59836;52.132;5.442;2023-04-24T10:11:23;100609.94;;;9.49;88.45
71966;BME280;59836;52.132;5.442;2023-04-24T10:13:50;100603.97;;;9.52;88.92
71966;BME280;59836;52.132;5.442;2023-04-24T10:19:06;100616.16;;;9.59;88.46
71966;BME280;59836;52.132;5.442;2023-04-24T10:21:34;100614.81;;;9.62;87.86
71966;BME280;59836;52.132;5.442;2023-04-24T10:27:09;100621.88;;;9.63;86.88
71966;BME280;59836;52.132;5.442;2023-04-24T10:29:38;100630.00;;;9.63;86.62
71966;BME280;59836;52.132;5.442;2023-04-24T10:32:10;100628.91;;;9.64;85.14
71966;BME280;59836;52.132;5.442;2023-04-24T10:34:43;100625.38;;;9.64;84.55
71966;BME280;59836;52.132;5.442;2023-04-24T10:37:12;100625.94;;;9.71;86.08
71966;BME280;59836;52.132;5.442;2023-04-24T10:39:40;100625.94;;;9.76;85.35
71966;BME280;59836;52.132;5.442;2023-04-24T10:42:16;100632.44;;;9.80;85.56
71966;BME280;59836;52.132;5.442;2023-04-24T10:45:20;100633.81;;;9.93;84.86
71966;BME280;59836;52.132;5.442;2023-04-24T10:47:59;100636.25;;;10.05;84.86
71966;BME280;59836;52.132;5.442;2023-04-24T10:50:53;100642.22;;;10.12;84.47
71966;BME280;59836;52.132;5.442;2023-04-24T10:53:20;100643.00;;;10.08;83.28
71966;BME280;59836;52.132;5.442;2023-04-24T10:55:50;100650.09;;;10.03;83.66
71966;BME280;59836;52.132;5.442;2023-04-24T11:01:52;100661.47;;;10.00;84.12
71966;BME280;59836;52.132;5.442;2023-04-24T11:04:32;100652.50;;;10.00;83.80
71966;BME280;59836;52.132;5.442;2023-04-24T11:06:59;100659.28;;;9.97;82.46
71966;BME280;59836;52.132;5.442;2023-04-24T11:09:33;100660.38;;;9.91;84.15
71966;BME280;59836;52.132;5.442;2023-04-24T11:12:11;100661.69;;;9.88;84.38
71966;BME280;59836;52.132;5.442;2023-04-24T11:17:30;100677.13;;;9.78;85.15
71966;BME280;59836;52.132;5.442;2023-04-24T11:20:08;100681.47;;;9.73;85.41
71966;BME280;59836;52.132;5.442;2023-04-24T11:23:07;100692.00;;;9.70;85.48
71966;BME280;59836;52.132;5.442;2023-04-24T11:25:37;100702.03;;;9.64;86.17
71966;BME280;59836;52.132;5.442;2023-04-24T11:28:04;100698.22;;;9.60;85.71
71966;BME280;59836;52.132;5.442;2023-04-24T11:30:32;100705.25;;;9.61;85.93
71966;BME280;59836;52.132;5.442;2023-04-24T11:33:03;100706.91;;;9.67;86.48
71966;BME280;59836;52.132;5.442;2023-04-24T11:35:35;100693.63;;;9.71;86.11
71966;BME280;59836;52.132;5.442;2023-04-24T11:38:06;100697.75;;;9.84;86.12
71966;BME280;59836;52.132;5.442;2023-04-24T11:40:53;100695.84;;;10.00;85.77
71966;BME280;59836;52.132;5.442;2023-04-24T11:43:21;100703.44;;;10.08;85.59
71966;BME280;59836;52.132;5.442;2023-04-24T11:45:48;100705.63;;;10.11;85.54
71966;BME280;59836;52.132;5.442;2023-04-24T11:48:19;100701.81;;;10.12;86.04
71966;BME280;59836;52.132;5.442;2023-04-24T11:50:56;100710.22;;;10.16;86.06
71966;BME280;59836;52.132;5.442;2023-04-24T11:53:23;100706.72;;;10.21;84.83
71966;BME280;59836;52.132;5.442;2023-04-24T11:55:53;100709.13;;;10.27;85.81
71966;BME280;59836;52.132;5.442;2023-04-24T11:58:21;100718.91;;;10.39;84.53
71966;BME280;59836;52.132;5.442;2023-04-24T12:00:59;100731.94;;;10.47;82.47
71966;BME280;59836;52.132;5.442;2023-04-24T12:03:31;100720.00;;;10.53;82.80
71966;BME280;59836;52.132;5.442;2023-04-24T12:06:09;100732.47;;;10.65;81.92
71966;BME280;59836;52.132;5.442;2023-04-24T12:08:40;100717.84;;;10.71;80.00
71966;BME280;59836;52.132;5.442;2023-04-24T12:11:07;100736.53;;;10.67;80.22
71966;BME280;59836;52.132;5.442;2023-04-24T12:13:34;100734.66;;;10.62;80.62
71966;BME280;59836;52.132;5.442;2023-04-24T12:16:03;100736.28;;;10.58;81.04
71966;BME280;59836;52.132;5.442;2023-04-24T12:21:24;100755.81;;;10.50;79.54
71966;BME280;59836;52.132;5.442;2023-04-24T12:24:09;100755.81;;;10.45;79.93
71966;BME280;59836;52.132;5.442;2023-04-24T12:26:55;100762.28;;;10.39;79.75
71966;BME280;59836;52.132;5.442;2023-04-24T12:29:22;100764.97;;;10.33;79.30
71966;BME280;59836;52.132;5.442;2023-04-24T12:31:50;100758.47;;;10.29;80.07
71966;BME280;59836;52.132;5.442;2023-04-24T12:34:22;100767.44;;;10.25;80.38
71966;BME280;59836;52.132;5.442;2023-04-24T12:36:52;100762.28;;;10.28;80.86
71966;BME280;59836;52.132;5.442;2023-04-24T12:39:19;100767.16;;;10.31;80.29
71966;BME280;59836;52.132;5.442;2023-04-24T12:41:59;100770.94;;;10.30;80.64
71966;BME280;59836;52.132;5.442;2023-04-24T12:44:33;100773.13;;;10.28;78.90
71966;BME280;59836;52.132;5.442;2023-04-24T12:47:06;100774.19;;;10.22;78.68
71966;BME280;59836;52.132;5.442;2023-04-24T12:55:19;100789.34;;;10.18;79.00
71966;BME280;59836;52.132;5.442;2023-04-24T12:57:52;100783.94;;;10.18;79.47
71966;BME280;59836;52.132;5.442;2023-04-24T13:00:30;100792.59;;;10.10;77.14
71966;BME280;59836;52.132;5.442;2023-04-24T13:02:59;100799.38;;;10.07;78.62
71966;BME280;59836;52.132;5.442;2023-04-24T13:05:30;100810.75;;;10.04;79.35
71966;BME280;59836;52.132;5.442;2023-04-24T13:08:02;100811.00;;;9.97;80.10
71966;BME280;59836;52.132;5.442;2023-04-24T13:10:37;100827.22;;;9.87;81.52
71966;BME280;59836;52.132;5.442;2023-04-24T13:13:07;100824.22;;;9.83;82.88
71966;BME280;59836;52.132;5.442;2023-04-24T13:19:01;100820.41;;;9.79;82.37
71966;BME280;59836;52.132;5.442;2023-04-24T13:21:29;100817.44;;;9.81;82.48
71966;BME280;59836;52.132;5.442;2023-04-24T13:23:57;100818.53;;;9.80;82.91
71966;BME280;59836;52.132;5.442;2023-04-24T13:26:24;100814.47;;;9.82;82.44
71966;BME280;59836;52.132;5.442;2023-04-24T13:28:53;100806.34;;;9.87;82.45
71966;BME280;59836;52.132;5.442;2023-04-24T13:31:22;100818.59;;;10.00;81.56
71966;BME280;59836;52.132;5.442;2023-04-24T13:33:48;100811.03;;;10.13;81.14
71966;BME280;59836;52.132;5.442;2023-04-24T13:36:19;100811.03;;;10.18;80.61
71966;BME280;59836;52.132;5.442;2023-04-24T13:38:46;100812.66;;;10.19;80.41
71966;BME280;59836;52.132;5.442;2023-04-24T13:41:13;100822.97;;;10.22;79.55
71966;BME280;59836;52.132;5.442;2023-04-24T13:43:43;100821.09;;;10.28;78.94
71966;BME280;59836;52.132;5.442;2023-04-24T13:46:11;100816.47;;;10.28;79.20
71966;BME280;59836;52.132;5.442;2023-04-24T13:48:40;100823.53;;;10.29;77.58
71966;BME280;59836;52.132;5.442;2023-04-24T13:54:04;100826.00;;;10.31;76.85
71966;BME280;59836;52.132;5.442;2023-04-24T13:56:30;100823.03;;;10.43;76.66
71966;BME280;59836;52.132;5.442;2023-04-24T13:58:57;100824.13;;;10.47;75.95
71966;BME280;59836;52.132;5.442;2023-04-24T14:01:24;100823.59;;;10.50;76.15
71966;BME280;59836;52.132;5.442;2023-04-24T14:03:55;100826.31;;;10.55;76.26
71966;BME280;59836;52.132;5.442;2023-04-24T14:06:22;100825.25;;;10.67;75.06
71966;BME280;59836;52.132;5.442;2023-04-24T14:08:50;100820.06;;;10.65;75.06
71966;BME280;59836;52.132;5.442;2023-04-24T14:11:18;100824.16;;;10.68;75.38
71966;BME280;59836;52.132;5.442;2023-04-24T14:13:45;100822.53;;;10.77;75.06
71966;BME280;59836;52.132;5.442;2023-04-24T14:16:12;100820.38;;;10.79;73.22
71966;BME280;59836;52.132;5.442;2023-04-24T14:18:39;100822.00;;;10.75;74.58
71966;BME280;59836;52.132;5.442;2023-04-24T14:21:06;100825.25;;;10.72;72.94